This is the latest recevied weather packets stored in our database for station/object WX1N. If no packets are shown the sender has not sent any weather packets the latest 10 day(s).
| Time | Temp. | Humidity | Pressure | Rain* | Wind** | Luminosity | Snow |
|---|---|---|---|---|---|---|---|
| 1777968904 | 10.56° C | 78% | 1006.8 hPa | 0 mm | - | - | - |
| 1777968604 | 10.56° C | 78% | 1006.8 hPa | 0 mm | - | - | - |
| 1777968303 | 10.56° C | 78% | 1006.8 hPa | 0 mm | - | - | - |
| 1777968004 | 10.56° C | 78% | 1006.8 hPa | 0 mm | - | - | - |
| 1777967704 | 10.56° C | 77% | 1006.8 hPa | 0 mm | - | - | - |
| 1777967403 | 11.11° C | 77% | 1006.8 hPa | 0 mm | - | - | - |
| 1777967104 | 11.11° C | 77% | 1006.8 hPa | 0 mm | - | - | - |
| 1777966803 | 11.11° C | 77% | 1006.8 hPa | 0 mm | - | - | - |
| 1777966504 | 11.11° C | 77% | 1006.8 hPa | 0 mm | - | - | - |
| 1777966203 | 10.56° C | 79% | 1006.8 hPa | 0 mm | - | - | - |
| 1777965904 | 10° C | 82% | 1006.8 hPa | 0 mm | - | - | - |
| 1777965604 | 9.44° C | 83% | 1006.9 hPa | 0 mm | - | - | - |
| 1777965304 | 8.89° C | 84% | 1006.9 hPa | 0 mm | - | - | - |
| 1777965004 | 8.33° C | 85% | 1006.9 hPa | 0 mm | - | - | - |
| 1777964703 | 7.78° C | 85% | 1007.1 hPa | 0 mm | - | - | - |
| 1777964404 | 7.78° C | 82% | 1007.1 hPa | 0 mm | - | - | - |
| 1777964104 | 8.33° C | 80% | 1007.1 hPa | 0 mm | - | - | - |
| 1777963803 | 8.89° C | 80% | 1007.2 hPa | 0 mm | - | - | - |
| 1777963504 | 8.89° C | 80% | 1007.2 hPa | 0 mm | - | - | - |
| 1777963204 | 9.44° C | 78% | 1007.1 hPa | 0 mm | - | - | - |
| 1777962904 | 10° C | 77% | 1007.2 hPa | 0 mm | - | - | - |
| 1777962604 | 10° C | 76% | 1007.2 hPa | 0 mm | - | - | - |
| 1777962303 | 10° C | 75% | 1007.2 hPa | 0 mm | - | - | - |
| 1777962004 | 10.56° C | 75% | 1007.2 hPa | 0 mm | - | - | - |
| 1777961704 | 11.11° C | 74% | 1007.2 hPa | 0 mm | - | - | - |
* Rain latest hour (hover to see other rain measurements)
** Current wind speed in m/s (hover to see current wind gust speed)